createdAt,value
2023-04-30T00:00:10.641Z,99601.25
2023-04-30T00:02:38.502Z,99600.31
2023-04-30T00:05:07.614Z,99597.69
2023-04-30T00:07:34.842Z,99598.63
2023-04-30T00:10:02.788Z,99604.75
2023-04-30T00:12:29.996Z,99603.00
2023-04-30T00:14:57.508Z,99597.78
2023-04-30T00:17:25.345Z,99595.19
2023-04-30T00:19:52.888Z,99607.41
2023-04-30T00:22:23.155Z,99607.47
2023-04-30T00:24:50.434Z,99598.88
2023-04-30T00:27:17.471Z,99601.63
2023-04-30T00:29:44.713Z,99600.00
2023-04-30T00:32:11.732Z,99610.56
2023-04-30T00:34:38.569Z,99608.91
2023-04-30T00:37:05.907Z,99608.13
2023-04-30T00:39:33.547Z,99602.94
2023-04-30T00:42:01.269Z,99596.88
2023-04-30T00:44:28.551Z,99589.06
2023-04-30T00:46:56.429Z,99591.63
2023-04-30T00:49:23.924Z,99583.72
2023-04-30T00:51:51.681Z,99581.09
2023-04-30T00:54:21.434Z,99576.66
2023-04-30T00:56:49.602Z,99577.59
2023-04-30T00:59:17.754Z,99571.50
2023-04-30T01:01:45.808Z,99567.19
2023-04-30T01:04:13.336Z,99564.56
2023-04-30T01:06:41.286Z,99558.47
2023-04-30T01:09:08.664Z,99554.13
2023-04-30T01:11:50.441Z,99560.22
2023-04-30T01:14:21.810Z,99544.59
2023-04-30T01:17:01.572Z,99549.00
2023-04-30T01:19:44.905Z,99543.78
2023-04-30T01:22:26.987Z,99548.16
2023-04-30T01:25:31.628Z,99547.28
2023-04-30T01:28:16.182Z,99539.56
2023-04-30T01:30:47.036Z,99539.59
2023-04-30T01:33:15.050Z,99555.31
2023-04-30T01:35:51.338Z,99544.94
2023-04-30T01:38:40.330Z,99549.41
2023-04-30T01:41:21.748Z,99545.09
2023-04-30T01:44:40.164Z,99548.63
2023-04-30T01:47:24.700Z,99543.50
2023-04-30T01:50:20.105Z,99537.44
2023-04-30T01:52:52.809Z,99531.31
2023-04-30T01:55:54.646Z,99530.53
2023-04-30T01:58:24.316Z,99522.81
2023-04-30T02:00:52.194Z,99524.56
2023-04-30T02:03:19.644Z,99523.75
2023-04-30T02:05:48.449Z,99522.88
2023-04-30T02:08:15.623Z,99524.66
2023-04-30T02:10:42.904Z,99520.38
2023-04-30T02:13:10.425Z,99514.25
2023-04-30T02:15:37.831Z,99512.44
2023-04-30T02:18:08.083Z,99518.50
2023-04-30T02:20:35.295Z,99514.97
2023-04-30T02:23:03.680Z,99516.72
2023-04-30T02:25:33.963Z,99515.00
2023-04-30T02:28:01.510Z,99515.00
2023-04-30T02:30:30.278Z,99522.84
2023-04-30T02:32:58.119Z,99525.47
2023-04-30T02:35:26.755Z,99522.88
2023-04-30T02:37:54.267Z,99526.38
2023-04-30T02:40:21.966Z,99523.75
2023-04-30T02:42:49.943Z,99514.19
2023-04-30T02:45:17.898Z,99516.81
2023-04-30T02:47:45.415Z,99515.09
2023-04-30T02:50:13.143Z,99513.34
2023-04-30T02:52:42.333Z,99519.41
2023-04-30T02:55:10.735Z,99511.53
2023-04-30T02:57:38.360Z,99514.13
2023-04-30T03:00:07.608Z,99512.31
2023-04-30T03:02:36.970Z,99510.53
2023-04-30T03:05:05.885Z,99507.88
2023-04-30T03:07:36.481Z,99509.56
2023-04-30T03:10:05.865Z,99513.81
2023-04-30T03:12:34.005Z,99507.66
2023-04-30T03:15:01.940Z,99506.72
2023-04-30T03:17:29.944Z,99504.91
2023-04-30T03:19:58.867Z,99495.25
2023-04-30T03:22:28.527Z,99502.09
2023-04-30T03:24:56.218Z,99502.00
2023-04-30T03:27:24.299Z,99504.50
2023-04-30T03:29:53.790Z,99500.88
2023-04-30T03:32:22.088Z,99487.66
2023-04-30T03:34:51.816Z,99497.06
2023-04-30T03:37:21.720Z,99497.75
2023-04-30T03:39:49.952Z,99487.09
2023-04-30T03:42:17.498Z,99490.34
2023-04-30T03:44:45.772Z,99484.88
2023-04-30T03:47:13.683Z,99486.34
2023-04-30T03:49:42.044Z,99487.66
2023-04-30T03:52:09.753Z,99488.06
2023-04-30T03:54:37.646Z,99482.16
2023-04-30T03:57:05.952Z,99481.47
2023-04-30T03:59:33.524Z,99486.81
2023-04-30T04:02:06.618Z,99482.34
2023-04-30T04:04:34.923Z,99483.22
2023-04-30T04:07:03.923Z,99470.06
2023-04-30T04:09:31.887Z,99471.69
2023-04-30T04:12:00.075Z,99466.84
2023-04-30T04:14:28.249Z,99465.41
2023-04-30T04:16:58.461Z,99456.63
2023-04-30T04:19:29.886Z,99458.97
2023-04-30T04:21:58.366Z,99469.03
2023-04-30T04:24:27.577Z,99456.00
2023-04-30T04:26:56.372Z,99456.47
2023-04-30T04:29:24.637Z,99448.47
2023-04-30T04:31:53.697Z,99452.19
2023-04-30T04:34:23.271Z,99449.72
2023-04-30T04:36:51.465Z,99455.34
2023-04-30T04:39:20.762Z,99447.41
2023-04-30T04:41:48.989Z,99441.81
2023-04-30T04:44:18.732Z,99448.78
2023-04-30T04:46:47.817Z,99448.16
2023-04-30T04:49:17.680Z,99445.66
2023-04-30T04:51:45.720Z,99450.66
2023-04-30T04:54:14.705Z,99456.31
2023-04-30T04:56:43.032Z,99453.44
2023-04-30T04:59:12.552Z,99461.84
2023-04-30T05:01:40.253Z,99459.47
2023-04-30T05:04:10.264Z,99453.09
2023-04-30T05:06:38.904Z,99453.22
2023-04-30T05:09:10.890Z,99460.00
2023-04-30T05:11:42.122Z,99464.81
2023-04-30T05:14:09.660Z,99467.25
2023-04-30T05:16:37.635Z,99463.47
2023-04-30T05:19:04.988Z,99468.56
2023-04-30T05:21:32.376Z,99472.28
2023-04-30T05:23:59.885Z,99459.94
2023-04-30T05:26:27.368Z,99473.06
2023-04-30T05:28:55.004Z,99471.34
2023-04-30T05:31:22.417Z,99471.44
2023-04-30T05:33:50.040Z,99462.31
2023-04-30T05:36:17.520Z,99465.72
2023-04-30T05:38:44.760Z,99461.19
2023-04-30T05:41:13.171Z,99461.28
2023-04-30T05:43:40.631Z,99465.34
2023-04-30T05:46:08.368Z,99457.56
2023-04-30T05:48:35.993Z,99456.44
2023-04-30T05:51:03.337Z,99454.44
2023-04-30T05:53:30.833Z,99462.03
2023-04-30T05:55:57.759Z,99455.88
2023-04-30T05:58:26.329Z,99467.91
2023-04-30T06:00:54.976Z,99459.47
2023-04-30T06:03:22.885Z,99462.22
2023-04-30T06:05:50.548Z,99452.44
2023-04-30T06:08:18.237Z,99447.19
2023-04-30T06:10:45.480Z,99452.34
2023-04-30T06:13:12.802Z,99453.47
2023-04-30T06:15:40.104Z,99450.16
2023-04-30T06:18:07.948Z,99450.75
2023-04-30T06:20:35.339Z,99451.41
2023-04-30T06:23:06.792Z,99456.72
2023-04-30T06:25:34.170Z,99453.75
2023-04-30T06:28:01.672Z,99454.22
2023-04-30T06:30:30.573Z,99445.75
2023-04-30T06:32:57.700Z,99445.19
2023-04-30T06:35:24.608Z,99444.69
2023-04-30T06:37:52.018Z,99446.38
2023-04-30T06:40:20.962Z,99446.00
2023-04-30T06:42:48.008Z,99443.66
2023-04-30T06:45:15.570Z,99442.22
2023-04-30T06:47:43.114Z,99435.09
2023-04-30T06:50:11.137Z,99435.00
2023-04-30T06:52:38.994Z,99440.41
2023-04-30T06:55:07.144Z,99440.16
2023-04-30T06:57:34.141Z,99428.78
2023-04-30T07:00:02.733Z,99434.09
2023-04-30T07:02:30.107Z,99417.16
2023-04-30T07:04:58.263Z,99421.31
2023-04-30T07:07:25.657Z,99415.22
2023-04-30T07:09:54.158Z,99410.78
2023-04-30T07:12:22.755Z,99415.13
2023-04-30T07:14:50.048Z,99414.38
2023-04-30T07:17:17.017Z,99410.31
2023-04-30T07:19:44.098Z,99408.13
2023-04-30T07:22:11.682Z,99399.91
2023-04-30T07:24:38.775Z,99396.53
2023-04-30T07:27:07.496Z,99387.56
2023-04-30T07:29:35.477Z,99397.56
2023-04-30T07:32:03.483Z,99383.09
2023-04-30T07:34:30.532Z,99389.41
2023-04-30T07:36:57.576Z,99390.13
2023-04-30T07:39:24.529Z,99382.47
2023-04-30T07:41:51.589Z,99389.63
2023-04-30T07:44:19.098Z,99397.28
2023-04-30T07:46:46.975Z,99392.22
2023-04-30T07:49:14.253Z,99393.63
2023-04-30T07:51:43.331Z,99391.94
2023-04-30T07:54:11.066Z,99385.00
2023-04-30T07:56:38.296Z,99381.84
2023-04-30T07:59:06.053Z,99379.72
2023-04-30T08:01:33.477Z,99373.63
2023-04-30T08:04:00.913Z,99371.53
2023-04-30T08:06:28.001Z,99380.63
2023-04-30T08:08:55.460Z,99374.06
2023-04-30T08:11:22.884Z,99368.91
2023-04-30T08:13:50.343Z,99371.75
2023-04-30T08:16:17.854Z,99364.28
2023-04-30T08:18:46.823Z,99364.69
2023-04-30T08:21:14.547Z,99362.78
2023-04-30T08:23:41.622Z,99363.72
2023-04-30T08:26:09.134Z,99357.38
2023-04-30T08:28:39.307Z,99362.53
2023-04-30T08:31:06.422Z,99363.31
2023-04-30T08:33:33.681Z,99358.94
2023-04-30T08:36:03.997Z,99356.19
2023-04-30T08:38:30.964Z,99356.59
2023-04-30T08:41:13.621Z,99345.56
2023-04-30T08:43:41.628Z,99360.88
2023-04-30T08:46:09.676Z,99365.09
2023-04-30T08:48:37.203Z,99362.22
2023-04-30T08:51:04.764Z,99353.94
2023-04-30T08:53:36.201Z,99355.97
2023-04-30T08:56:06.994Z,99358.00
2023-04-30T08:58:34.369Z,99358.25
2023-04-30T09:01:03.390Z,99365.38
2023-04-30T09:03:31.740Z,99350.09
2023-04-30T09:05:58.759Z,99355.16
2023-04-30T09:08:43.129Z,99351.81
2023-04-30T09:11:28.590Z,99347.69
2023-04-30T09:13:58.306Z,99342.47
2023-04-30T09:16:28.264Z,99351.47
2023-04-30T09:18:56.890Z,99327.28
2023-04-30T09:21:34.788Z,99343.25
2023-04-30T09:24:04.623Z,99342.63
2023-04-30T09:26:37.970Z,99338.84
2023-04-30T09:29:10.327Z,99338.72
2023-04-30T09:31:39.195Z,99332.56
2023-04-30T09:34:07.334Z,99328.44
2023-04-30T09:36:35.381Z,99322.34
2023-04-30T09:39:15.535Z,99324.91
2023-04-30T09:41:43.829Z,99318.97
2023-04-30T09:44:30.195Z,99325.41
2023-04-30T09:46:59.525Z,99318.22
2023-04-30T09:49:27.896Z,99309.59
2023-04-30T09:52:00.202Z,99308.03
2023-04-30T09:54:29.605Z,99307.63
2023-04-30T09:56:58.724Z,99307.34
2023-04-30T09:59:35.534Z,99312.97
2023-04-30T10:02:05.110Z,99315.66
2023-04-30T10:04:42.276Z,99312.50
2023-04-30T10:07:15.672Z,99304.09
2023-04-30T10:10:05.281Z,99309.34
2023-04-30T10:12:44.962Z,99297.06
2023-04-30T10:15:17.831Z,99306.19
2023-04-30T10:17:50.954Z,99308.03
2023-04-30T10:20:23.949Z,99312.50
2023-04-30T10:22:53.115Z,99307.16
2023-04-30T10:25:20.259Z,99308.34
2023-04-30T10:27:51.367Z,99299.53
2023-04-30T10:30:19.086Z,99297.97
2023-04-30T10:32:58.450Z,99293.69
2023-04-30T10:35:41.781Z,99294.38
2023-04-30T10:38:27.089Z,99283.25
2023-04-30T10:40:59.471Z,99284.78
2023-04-30T10:43:27.716Z,99274.09
2023-04-30T10:45:57.377Z,99278.59
2023-04-30T10:48:26.390Z,99288.28
2023-04-30T10:50:56.844Z,99283.56
2023-04-30T10:53:26.418Z,99292.16
2023-04-30T10:55:58.646Z,99277.81
2023-04-30T10:58:34.795Z,99280.94
2023-04-30T11:01:15.955Z,99272.56
2023-04-30T11:04:04.228Z,99274.03
2023-04-30T11:06:57.062Z,99265.09
2023-04-30T11:09:44.508Z,99271.63
2023-04-30T11:12:11.962Z,99271.03
2023-04-30T11:14:46.689Z,99268.03
2023-04-30T11:17:23.845Z,99272.75
2023-04-30T11:19:53.733Z,99270.59
2023-04-30T11:22:24.916Z,99267.69
2023-04-30T11:25:06.094Z,99261.28
2023-04-30T11:27:35.369Z,99254.06
2023-04-30T11:30:05.873Z,99255.63
2023-04-30T11:32:35.744Z,99253.50
2023-04-30T11:35:05.023Z,99245.72
2023-04-30T11:37:40.478Z,99247.41
2023-04-30T11:40:11.266Z,99247.56
2023-04-30T11:42:40.831Z,99238.94
2023-04-30T11:45:11.356Z,99223.59
2023-04-30T11:47:41.741Z,99227.75
2023-04-30T11:50:12.142Z,99241.91
2023-04-30T11:52:40.655Z,99235.06
2023-04-30T11:55:18.619Z,99227.44
2023-04-30T11:57:49.078Z,99236.81
2023-04-30T12:00:22.465Z,99225.91
2023-04-30T12:02:51.009Z,99225.88
2023-04-30T12:05:21.006Z,99217.41
2023-04-30T12:07:58.439Z,99215.47
2023-04-30T12:10:26.156Z,99215.78
2023-04-30T12:12:54.968Z,99217.59
2023-04-30T12:15:27.388Z,99211.78
2023-04-30T12:17:59.666Z,99208.28
2023-04-30T12:20:29.059Z,99207.75
2023-04-30T12:22:57.091Z,99206.91
2023-04-30T12:25:25.124Z,99200.69
2023-04-30T12:27:53.822Z,99201.94
2023-04-30T12:30:24.271Z,99194.78
2023-04-30T12:32:53.426Z,99200.38
2023-04-30T12:35:25.338Z,99200.63
2023-04-30T12:38:03.094Z,99193.38
2023-04-30T12:40:30.905Z,99191.84
2023-04-30T12:43:06.805Z,99197.59
2023-04-30T12:46:06.986Z,99203.25
2023-04-30T12:48:47.844Z,99193.97
2023-04-30T12:51:20.624Z,99186.22
2023-04-30T12:53:48.483Z,99188.03
2023-04-30T12:56:18.377Z,99203.47
2023-04-30T12:58:51.391Z,99203.63
2023-04-30T13:01:22.050Z,99201.88
2023-04-30T13:03:50.008Z,99198.63
2023-04-30T13:06:18.174Z,99198.75
2023-04-30T13:08:58.010Z,99194.94
2023-04-30T13:11:27.301Z,99200.88
2023-04-30T13:13:57.991Z,99191.09
2023-04-30T13:16:26.202Z,99191.34
2023-04-30T13:18:53.764Z,99194.78
2023-04-30T13:21:21.948Z,99188.00
2023-04-30T13:23:53.546Z,99186.16
2023-04-30T13:26:23.701Z,99173.00
2023-04-30T13:28:51.725Z,99177.69
2023-04-30T13:31:18.984Z,99163.84
2023-04-30T13:33:46.567Z,99163.31
2023-04-30T13:36:13.788Z,99160.31
2023-04-30T13:38:41.965Z,99164.47
2023-04-30T13:41:09.670Z,99160.34
2023-04-30T13:43:41.489Z,99144.59
2023-04-30T13:46:09.825Z,99157.00
2023-04-30T13:48:40.184Z,99162.03
2023-04-30T13:51:08.286Z,99156.69
2023-04-30T13:53:37.250Z,99153.78
2023-04-30T13:56:04.762Z,99157.69
2023-04-30T13:58:32.446Z,99166.59
2023-04-30T14:00:59.938Z,99159.63
2023-04-30T14:03:27.378Z,99159.22
2023-04-30T14:05:55.701Z,99162.81
2023-04-30T14:08:23.549Z,99158.81
2023-04-30T14:10:50.814Z,99148.50
2023-04-30T14:13:18.119Z,99150.53
2023-04-30T14:15:45.522Z,99151.03
2023-04-30T14:18:13.623Z,99158.03
2023-04-30T14:20:41.447Z,99155.50
2023-04-30T14:23:09.276Z,99151.91
2023-04-30T14:25:36.989Z,99156.94
2023-04-30T14:28:04.292Z,99154.38
2023-04-30T14:30:31.773Z,99152.25
2023-04-30T14:32:59.266Z,99155.31
2023-04-30T14:35:27.404Z,99155.34
2023-04-30T14:37:54.617Z,99153.44
2023-04-30T14:40:22.014Z,99156.41
2023-04-30T14:42:50.961Z,99145.53
2023-04-30T14:45:18.246Z,99153.72
2023-04-30T14:47:45.852Z,99158.34
2023-04-30T14:50:13.616Z,99147.16
2023-04-30T14:52:42.455Z,99154.75
2023-04-30T14:55:09.839Z,99157.00
2023-04-30T14:57:37.980Z,99153.22
2023-04-30T15:00:07.020Z,99151.50
2023-04-30T15:02:34.370Z,99161.28
2023-04-30T15:05:01.413Z,99155.94
2023-04-30T15:07:28.932Z,99143.25
2023-04-30T15:09:57.103Z,99155.13
2023-04-30T15:12:24.594Z,99153.59
2023-04-30T15:14:52.807Z,99146.28
2023-04-30T15:17:21.831Z,99160.13
2023-04-30T15:19:49.593Z,99153.53
2023-04-30T15:22:17.594Z,99146.53
2023-04-30T15:24:46.214Z,99147.84
2023-04-30T15:27:14.387Z,99155.63
2023-04-30T15:29:42.091Z,99151.16
2023-04-30T15:32:09.500Z,99148.84
2023-04-30T15:34:36.654Z,99148.72
2023-04-30T15:37:04.462Z,99146.09
2023-04-30T15:39:32.129Z,99150.69
2023-04-30T15:41:59.682Z,99149.25
2023-04-30T15:44:27.214Z,99153.34
2023-04-30T15:46:54.508Z,99153.38
2023-04-30T15:49:23.876Z,99152.16
2023-04-30T15:51:52.931Z,99150.53
2023-04-30T15:54:23.960Z,99156.78
2023-04-30T15:56:52.352Z,99155.66
2023-04-30T15:59:23.236Z,99157.06
2023-04-30T16:01:51.309Z,99153.44
2023-04-30T16:04:19.098Z,99157.06
2023-04-30T16:06:47.167Z,99164.84
2023-04-30T16:09:17.502Z,99161.78
2023-04-30T16:11:44.728Z,99169.81
2023-04-30T16:14:12.716Z,99167.41
2023-04-30T16:16:40.411Z,99161.66
2023-04-30T16:19:08.485Z,99166.84
2023-04-30T16:21:38.754Z,99177.63
2023-04-30T16:24:09.108Z,99175.88
2023-04-30T16:26:39.917Z,99178.16
2023-04-30T16:29:08.006Z,99183.94
2023-04-30T16:31:36.893Z,99186.47
2023-04-30T16:34:06.191Z,99188.09
2023-04-30T16:36:35.262Z,99180.03
2023-04-30T16:39:04.799Z,99190.53
2023-04-30T16:41:31.980Z,99179.78
2023-04-30T16:43:59.667Z,99184.31
2023-04-30T16:46:28.192Z,99178.91
2023-04-30T16:48:58.329Z,99183.50
2023-04-30T16:51:27.200Z,99186.84
2023-04-30T16:53:54.694Z,99196.38
2023-04-30T16:56:21.994Z,99185.28
2023-04-30T16:58:49.727Z,99183.47
2023-04-30T17:01:16.829Z,99188.13
2023-04-30T17:03:44.985Z,99191.91
2023-04-30T17:06:14.544Z,99190.47
2023-04-30T17:08:42.197Z,99193.00
2023-04-30T17:11:09.561Z,99192.50
2023-04-30T17:13:37.933Z,99197.03
2023-04-30T17:16:07.546Z,99195.94
2023-04-30T17:18:35.359Z,99199.94
2023-04-30T17:21:03.205Z,99199.63
2023-04-30T17:23:31.899Z,99198.63
2023-04-30T17:26:02.214Z,99204.69
2023-04-30T17:28:33.200Z,99202.97
2023-04-30T17:31:07.350Z,99206.56
2023-04-30T17:33:36.355Z,99208.53
2023-04-30T17:36:07.685Z,99213.97
2023-04-30T17:38:36.181Z,99210.31
2023-04-30T17:41:04.198Z,99212.97
2023-04-30T17:43:31.799Z,99218.22
2023-04-30T17:45:59.593Z,99218.31
2023-04-30T17:48:27.577Z,99220.13
2023-04-30T17:50:55.424Z,99225.31
2023-04-30T17:53:22.973Z,99219.84
2023-04-30T17:55:50.221Z,99224.34
2023-04-30T17:58:17.764Z,99231.44
2023-04-30T18:00:45.636Z,99235.06
2023-04-30T18:03:13.264Z,99231.72
2023-04-30T18:05:40.135Z,99235.19
2023-04-30T18:08:08.294Z,99239.69
2023-04-30T18:10:35.460Z,99239.75
2023-04-30T18:13:02.967Z,99243.19
2023-04-30T18:15:30.296Z,99237.00
2023-04-30T18:17:59.363Z,99234.34
2023-04-30T18:20:26.789Z,99236.78
2023-04-30T18:22:54.244Z,99240.78
2023-04-30T18:25:22.664Z,99234.28
2023-04-30T18:27:50.370Z,99237.44
2023-04-30T18:30:17.783Z,99239.84
2023-04-30T18:32:45.376Z,99241.94
2023-04-30T18:35:12.898Z,99241.34
2023-04-30T18:37:40.123Z,99239.09
2023-04-30T18:40:07.614Z,99241.41
2023-04-30T18:42:35.233Z,99247.19
2023-04-30T18:45:02.470Z,99247.72
2023-04-30T18:47:31.176Z,99242.88
2023-04-30T18:49:58.786Z,99236.22
2023-04-30T18:52:26.197Z,99239.09
2023-04-30T18:54:53.824Z,99243.66
2023-04-30T18:57:24.482Z,99240.41
2023-04-30T18:59:51.897Z,99236.31
2023-04-30T19:02:18.923Z,99236.56
2023-04-30T19:04:46.624Z,99240.34
2023-04-30T19:07:14.455Z,99238.81
2023-04-30T19:09:42.026Z,99238.13
2023-04-30T19:12:10.788Z,99232.09
2023-04-30T19:14:38.168Z,99229.59
2023-04-30T19:17:06.383Z,99228.84
2023-04-30T19:19:33.918Z,99228.97
2023-04-30T19:22:01.640Z,99219.50
2023-04-30T19:24:29.474Z,99216.19
2023-04-30T19:26:57.222Z,99226.06
2023-04-30T19:29:24.816Z,99231.56
2023-04-30T19:31:52.101Z,99228.41
2023-04-30T19:34:19.129Z,99233.25
2023-04-30T19:36:46.393Z,99227.63
2023-04-30T19:39:14.247Z,99229.03
2023-04-30T19:41:41.027Z,99226.09
2023-04-30T19:44:08.362Z,99228.28
2023-04-30T19:46:36.053Z,99228.69
2023-04-30T19:49:04.450Z,99232.44
2023-04-30T19:51:32.307Z,99231.09
2023-04-30T19:53:59.500Z,99234.09
2023-04-30T19:56:27.083Z,99234.31
2023-04-30T19:58:54.661Z,99228.38
2023-04-30T20:01:22.495Z,99244.13
2023-04-30T20:03:50.077Z,99242.31
2023-04-30T20:06:17.191Z,99234.44
2023-04-30T20:08:44.642Z,99241.50
2023-04-30T20:11:12.290Z,99236.31
2023-04-30T20:13:40.051Z,99234.50
2023-04-30T20:16:12.730Z,99238.09
2023-04-30T20:18:39.805Z,99238.19
2023-04-30T20:21:07.486Z,99234.91
2023-04-30T20:23:34.508Z,99237.44
2023-04-30T20:26:02.500Z,99243.38
2023-04-30T20:28:31.014Z,99245.00
2023-04-30T20:30:58.299Z,99236.16
2023-04-30T20:33:26.863Z,99239.56
2023-04-30T20:35:54.517Z,99237.75
2023-04-30T20:38:22.265Z,99239.47
2023-04-30T20:40:49.875Z,99241.88
2023-04-30T20:43:17.585Z,99240.91
2023-04-30T20:45:45.692Z,99246.16
2023-04-30T20:48:13.361Z,99247.94
2023-04-30T20:50:40.831Z,99248.78
2023-04-30T20:53:10.363Z,99247.91
2023-04-30T20:55:38.495Z,99254.97
2023-04-30T20:58:05.904Z,99253.38
2023-04-30T21:00:33.428Z,99253.66
2023-04-30T21:03:01.041Z,99258.34
2023-04-30T21:05:30.348Z,99265.56
2023-04-30T21:08:01.701Z,99263.25
2023-04-30T21:10:36.732Z,99270.47
2023-04-30T21:13:05.928Z,99268.13
2023-04-30T21:15:36.369Z,99270.88
2023-04-30T21:18:04.115Z,99268.59
2023-04-30T21:20:32.046Z,99277.59
2023-04-30T21:22:59.502Z,99272.53
2023-04-30T21:25:26.750Z,99271.84
2023-04-30T21:27:53.962Z,99270.31
2023-04-30T21:30:25.024Z,99270.59
2023-04-30T21:32:58.365Z,99280.38
2023-04-30T21:35:28.007Z,99272.84
2023-04-30T21:37:55.528Z,99277.38
2023-04-30T21:40:22.775Z,99275.75
2023-04-30T21:42:50.062Z,99281.97
2023-04-30T21:45:17.192Z,99278.69
2023-04-30T21:47:45.054Z,99284.06
2023-04-30T21:50:12.656Z,99285.84
2023-04-30T21:52:39.777Z,99287.53
2023-04-30T21:55:08.155Z,99300.63
2023-04-30T21:57:35.686Z,99297.13
2023-04-30T22:00:04.760Z,99300.59
2023-04-30T22:02:33.234Z,99306.59
2023-04-30T22:05:00.039Z,99301.34
2023-04-30T22:07:28.327Z,99293.38
2023-04-30T22:09:55.854Z,99303.72
2023-04-30T22:12:25.375Z,99288.84
2023-04-30T22:14:53.812Z,99295.78
2023-04-30T22:17:21.885Z,99295.78
2023-04-30T22:19:49.446Z,99294.00
2023-04-30T22:22:16.802Z,99300.06
2023-04-30T22:24:43.904Z,99295.91
2023-04-30T22:27:11.641Z,99296.94
2023-04-30T22:29:38.525Z,99296.28
2023-04-30T22:32:07.697Z,99303.41
2023-04-30T22:34:40.568Z,99306.19
2023-04-30T22:37:08.397Z,99302.00
2023-04-30T22:39:37.443Z,99291.03
2023-04-30T22:42:06.210Z,99302.50
2023-04-30T22:44:34.303Z,99297.34
2023-04-30T22:47:02.308Z,99304.34
2023-04-30T22:49:32.249Z,99303.34
2023-04-30T22:52:00.381Z,99298.00
2023-04-30T22:54:27.659Z,99297.16
2023-04-30T22:56:55.273Z,99306.78
2023-04-30T22:59:22.443Z,99307.66
2023-04-30T23:01:49.878Z,99311.94
2023-04-30T23:04:16.867Z,99319.72
2023-04-30T23:06:44.357Z,99310.94
2023-04-30T23:09:12.866Z,99313.50
2023-04-30T23:11:39.882Z,99306.50
2023-04-30T23:14:07.069Z,99305.56
2023-04-30T23:16:34.787Z,99313.34
2023-04-30T23:19:01.612Z,99306.34
2023-04-30T23:21:29.063Z,99307.06
2023-04-30T23:23:57.649Z,99307.72
2023-04-30T23:26:25.104Z,99304.69
2023-04-30T23:28:53.822Z,99310.34
2023-04-30T23:31:21.361Z,99315.03
2023-04-30T23:33:48.877Z,99309.34
2023-04-30T23:36:16.543Z,99310.66
2023-04-30T23:38:43.945Z,99310.94
2023-04-30T23:41:11.436Z,99299.81
2023-04-30T23:43:38.751Z,99304.34
2023-04-30T23:46:06.305Z,99308.06
2023-04-30T23:48:34.492Z,99302.28
2023-04-30T23:51:03.277Z,99307.94
2023-04-30T23:53:31.592Z,99308.41
2023-04-30T23:55:59.284Z,99296.69
2023-04-30T23:58:27.272Z,99298.97
